sensor_id;sensor_type;location;lat;lon;timestamp;P1;durP1;ratioP1;P2;durP2;ratioP2
50092;SDS011;35974;47.752;10.290;2024-02-14T00:02:26;5.35;;;3.00;;
50092;SDS011;35974;47.752;10.290;2024-02-14T00:04:55;5.72;;;2.55;;
50092;SDS011;35974;47.752;10.290;2024-02-14T00:07:22;7.13;;;3.10;;
50092;SDS011;35974;47.752;10.290;2024-02-14T00:09:49;7.13;;;2.78;;
50092;SDS011;35974;47.752;10.290;2024-02-14T00:12:15;5.28;;;3.10;;
50092;SDS011;35974;47.752;10.290;2024-02-14T00:14:42;6.90;;;2.80;;
50092;SDS011;35974;47.752;10.290;2024-02-14T00:17:09;4.28;;;2.53;;
50092;SDS011;35974;47.752;10.290;2024-02-14T00:19:37;4.32;;;2.53;;
50092;SDS011;35974;47.752;10.290;2024-02-14T00:22:03;5.10;;;2.70;;
50092;SDS011;35974;47.752;10.290;2024-02-14T00:24:30;6.13;;;2.50;;
50092;SDS011;35974;47.752;10.290;2024-02-14T00:26:58;5.30;;;2.42;;
50092;SDS011;35974;47.752;10.290;2024-02-14T00:29:26;3.72;;;2.00;;
50092;SDS011;35974;47.752;10.290;2024-02-14T00:31:53;3.92;;;2.33;;
50092;SDS011;35974;47.752;10.290;2024-02-14T00:34:20;5.55;;;2.53;;
50092;SDS011;35974;47.752;10.290;2024-02-14T00:36:47;5.90;;;2.42;;
50092;SDS011;35974;47.752;10.290;2024-02-14T00:39:15;4.68;;;2.90;;
50092;SDS011;35974;47.752;10.290;2024-02-14T00:41:42;4.78;;;2.78;;
50092;SDS011;35974;47.752;10.290;2024-02-14T00:44:09;5.57;;;2.70;;
50092;SDS011;35974;47.752;10.290;2024-02-14T00:46:35;4.50;;;2.53;;
50092;SDS011;35974;47.752;10.290;2024-02-14T00:49:02;4.03;;;2.63;;
50092;SDS011;35974;47.752;10.290;2024-02-14T00:51:37;6.15;;;2.60;;
50092;SDS011;35974;47.752;10.290;2024-02-14T00:54:04;3.97;;;2.28;;
50092;SDS011;35974;47.752;10.290;2024-02-14T00:56:31;6.07;;;2.40;;
50092;SDS011;35974;47.752;10.290;2024-02-14T00:59:05;7.03;;;2.53;;
50092;SDS011;35974;47.752;10.290;2024-02-14T01:01:34;3.55;;;2.00;;
50092;SDS011;35974;47.752;10.290;2024-02-14T01:04:00;5.20;;;2.67;;
50092;SDS011;35974;47.752;10.290;2024-02-14T01:06:27;5.07;;;2.67;;
50092;SDS011;35974;47.752;10.290;2024-02-14T01:09:18;5.00;;;2.50;;
50092;SDS011;35974;47.752;10.290;2024-02-14T01:11:45;3.67;;;2.13;;
50092;SDS011;35974;47.752;10.290;2024-02-14T01:17:27;4.57;;;2.00;;
50092;SDS011;35974;47.752;10.290;2024-02-14T01:19:54;3.72;;;1.98;;
50092;SDS011;35974;47.752;10.290;2024-02-14T01:22:21;3.85;;;2.10;;
50092;SDS011;35974;47.752;10.290;2024-02-14T01:27:37;5.43;;;2.00;;
50092;SDS011;35974;47.752;10.290;2024-02-14T01:30:03;4.40;;;1.85;;
50092;SDS011;35974;47.752;10.290;2024-02-14T01:32:31;2.83;;;1.80;;
50092;SDS011;35974;47.752;10.290;2024-02-14T01:34:58;3.28;;;1.52;;
50092;SDS011;35974;47.752;10.290;2024-02-14T01:37:26;1.90;;;1.27;;
50092;SDS011;35974;47.752;10.290;2024-02-14T01:39:53;3.30;;;1.80;;
50092;SDS011;35974;47.752;10.290;2024-02-14T01:45:11;4.80;;;2.08;;
50092;SDS011;35974;47.752;10.290;2024-02-14T01:47:38;3.88;;;2.00;;
50092;SDS011;35974;47.752;10.290;2024-02-14T01:50:08;5.00;;;2.30;;
50092;SDS011;35974;47.752;10.290;2024-02-14T01:55:31;3.03;;;1.77;;
50092;SDS011;35974;47.752;10.290;2024-02-14T01:57:59;5.50;;;2.00;;
50092;SDS011;35974;47.752;10.290;2024-02-14T02:00:26;3.33;;;1.95;;
50092;SDS011;35974;47.752;10.290;2024-02-14T02:03:00;3.17;;;1.83;;
50092;SDS011;35974;47.752;10.290;2024-02-14T02:05:27;3.85;;;1.80;;
50092;SDS011;35974;47.752;10.290;2024-02-14T02:07:55;3.42;;;2.17;;
50092;SDS011;35974;47.752;10.290;2024-02-14T02:10:22;3.72;;;2.00;;
50092;SDS011;35974;47.752;10.290;2024-02-14T02:12:57;4.75;;;2.47;;
50092;SDS011;35974;47.752;10.290;2024-02-14T02:15:26;3.67;;;2.08;;
50092;SDS011;35974;47.752;10.290;2024-02-14T02:18:03;5.63;;;2.35;;
50092;SDS011;35974;47.752;10.290;2024-02-14T02:23:02;4.90;;;2.20;;
50092;SDS011;35974;47.752;10.290;2024-02-14T02:25:29;3.42;;;1.77;;
50092;SDS011;35974;47.752;10.290;2024-02-14T02:31:01;3.05;;;1.92;;
50092;SDS011;35974;47.752;10.290;2024-02-14T02:33:27;5.28;;;2.00;;
50092;SDS011;35974;47.752;10.290;2024-02-14T02:35:54;3.45;;;1.98;;
50092;SDS011;35974;47.752;10.290;2024-02-14T02:38:21;3.92;;;2.28;;
50092;SDS011;35974;47.752;10.290;2024-02-14T02:40:49;4.28;;;2.17;;
50092;SDS011;35974;47.752;10.290;2024-02-14T02:43:19;3.90;;;1.73;;
50092;SDS011;35974;47.752;10.290;2024-02-14T02:45:46;3.90;;;1.80;;
50092;SDS011;35974;47.752;10.290;2024-02-14T02:48:15;2.88;;;1.73;;
50092;SDS011;35974;47.752;10.290;2024-02-14T02:50:42;3.53;;;1.55;;
50092;SDS011;35974;47.752;10.290;2024-02-14T02:53:11;2.92;;;1.58;;
50092;SDS011;35974;47.752;10.290;2024-02-14T02:55:37;3.17;;;1.73;;
50092;SDS011;35974;47.752;10.290;2024-02-14T02:58:04;3.13;;;1.70;;
50092;SDS011;35974;47.752;10.290;2024-02-14T03:00:33;2.88;;;1.40;;
50092;SDS011;35974;47.752;10.290;2024-02-14T03:03:00;3.13;;;1.50;;
50092;SDS011;35974;47.752;10.290;2024-02-14T03:05:27;2.47;;;1.33;;
50092;SDS011;35974;47.752;10.290;2024-02-14T03:07:53;2.38;;;1.45;;
50092;SDS011;35974;47.752;10.290;2024-02-14T03:10:36;3.80;;;1.40;;
50092;SDS011;35974;47.752;10.290;2024-02-14T03:13:03;2.28;;;1.35;;
50092;SDS011;35974;47.752;10.290;2024-02-14T03:15:30;2.63;;;1.33;;
50092;SDS011;35974;47.752;10.290;2024-02-14T03:17:56;2.88;;;1.58;;
50092;SDS011;35974;47.752;10.290;2024-02-14T03:20:23;2.00;;;1.33;;
50092;SDS011;35974;47.752;10.290;2024-02-14T03:22:50;3.95;;;1.20;;
50092;SDS011;35974;47.752;10.290;2024-02-14T03:28:03;2.90;;;1.05;;
50092;SDS011;35974;47.752;10.290;2024-02-14T03:30:53;3.83;;;1.30;;
50092;SDS011;35974;47.752;10.290;2024-02-14T03:33:20;3.65;;;1.38;;
50092;SDS011;35974;47.752;10.290;2024-02-14T03:35:50;2.20;;;1.40;;
50092;SDS011;35974;47.752;10.290;2024-02-14T03:38:29;2.67;;;1.38;;
50092;SDS011;35974;47.752;10.290;2024-02-14T03:40:57;3.47;;;1.90;;
50092;SDS011;35974;47.752;10.290;2024-02-14T03:43:25;4.20;;;1.33;;
50092;SDS011;35974;47.752;10.290;2024-02-14T03:45:51;2.75;;;1.45;;
50092;SDS011;35974;47.752;10.290;2024-02-14T03:48:18;2.58;;;1.08;;
50092;SDS011;35974;47.752;10.290;2024-02-14T03:50:44;2.00;;;1.10;;
50092;SDS011;35974;47.752;10.290;2024-02-14T03:53:11;2.03;;;1.10;;
50092;SDS011;35974;47.752;10.290;2024-02-14T03:55:38;1.52;;;1.02;;
50092;SDS011;35974;47.752;10.290;2024-02-14T03:58:05;2.80;;;1.50;;
50092;SDS011;35974;47.752;10.290;2024-02-14T04:00:34;1.92;;;1.10;;
50092;SDS011;35974;47.752;10.290;2024-02-14T04:03:04;1.98;;;1.20;;
50092;SDS011;35974;47.752;10.290;2024-02-14T04:05:30;2.42;;;1.17;;
50092;SDS011;35974;47.752;10.290;2024-02-14T04:07:59;1.67;;;1.20;;
50092;SDS011;35974;47.752;10.290;2024-02-14T04:10:25;5.18;;;1.85;;
50092;SDS011;35974;47.752;10.290;2024-02-14T04:12:52;2.92;;;2.08;;
50092;SDS011;35974;47.752;10.290;2024-02-14T04:15:19;6.38;;;3.15;;
50092;SDS011;35974;47.752;10.290;2024-02-14T04:17:50;6.57;;;2.95;;
50092;SDS011;35974;47.752;10.290;2024-02-14T04:20:17;7.03;;;3.53;;
50092;SDS011;35974;47.752;10.290;2024-02-14T04:22:43;4.47;;;3.17;;
50092;SDS011;35974;47.752;10.290;2024-02-14T04:25:11;6.28;;;3.25;;
50092;SDS011;35974;47.752;10.290;2024-02-14T04:27:38;4.20;;;2.47;;
50092;SDS011;35974;47.752;10.290;2024-02-14T04:30:05;2.70;;;2.10;;
50092;SDS011;35974;47.752;10.290;2024-02-14T04:32:32;3.83;;;2.25;;
50092;SDS011;35974;47.752;10.290;2024-02-14T04:35:01;4.03;;;1.98;;
50092;SDS011;35974;47.752;10.290;2024-02-14T04:37:28;4.18;;;1.80;;
50092;SDS011;35974;47.752;10.290;2024-02-14T04:39:56;4.93;;;2.70;;
50092;SDS011;35974;47.752;10.290;2024-02-14T04:42:22;4.22;;;2.20;;
50092;SDS011;35974;47.752;10.290;2024-02-14T04:44:49;5.07;;;2.58;;
50092;SDS011;35974;47.752;10.290;2024-02-14T04:47:16;3.33;;;1.92;;
50092;SDS011;35974;47.752;10.290;2024-02-14T04:49:42;3.53;;;2.10;;
50092;SDS011;35974;47.752;10.290;2024-02-14T04:52:09;5.28;;;2.20;;
50092;SDS011;35974;47.752;10.290;2024-02-14T04:54:35;3.22;;;1.95;;
50092;SDS011;35974;47.752;10.290;2024-02-14T04:57:02;4.00;;;2.00;;
50092;SDS011;35974;47.752;10.290;2024-02-14T04:59:30;4.70;;;1.83;;
50092;SDS011;35974;47.752;10.290;2024-02-14T05:01:56;4.50;;;2.08;;
50092;SDS011;35974;47.752;10.290;2024-02-14T05:04:23;5.10;;;2.10;;
50092;SDS011;35974;47.752;10.290;2024-02-14T05:06:50;3.70;;;1.55;;
50092;SDS011;35974;47.752;10.290;2024-02-14T05:09:22;3.85;;;1.70;;
50092;SDS011;35974;47.752;10.290;2024-02-14T05:11:48;3.50;;;1.85;;
50092;SDS011;35974;47.752;10.290;2024-02-14T05:14:15;4.03;;;2.15;;
50092;SDS011;35974;47.752;10.290;2024-02-14T05:16:42;2.45;;;1.55;;
50092;SDS011;35974;47.752;10.290;2024-02-14T05:19:08;2.80;;;1.73;;
50092;SDS011;35974;47.752;10.290;2024-02-14T05:21:36;4.13;;;1.80;;
50092;SDS011;35974;47.752;10.290;2024-02-14T05:24:02;3.35;;;1.60;;
50092;SDS011;35974;47.752;10.290;2024-02-14T05:26:29;3.45;;;1.75;;
50092;SDS011;35974;47.752;10.290;2024-02-14T05:28:56;8.70;;;3.25;;
50092;SDS011;35974;47.752;10.290;2024-02-14T05:31:23;9.93;;;5.35;;
50092;SDS011;35974;47.752;10.290;2024-02-14T05:33:50;8.18;;;4.28;;
50092;SDS011;35974;47.752;10.290;2024-02-14T05:36:17;5.85;;;2.92;;
50092;SDS011;35974;47.752;10.290;2024-02-14T05:38:43;5.95;;;2.55;;
50092;SDS011;35974;47.752;10.290;2024-02-14T05:41:10;6.15;;;1.80;;
50092;SDS011;35974;47.752;10.290;2024-02-14T05:43:37;5.15;;;1.75;;
50092;SDS011;35974;47.752;10.290;2024-02-14T05:46:04;4.07;;;2.10;;
50092;SDS011;35974;47.752;10.290;2024-02-14T05:48:32;5.72;;;1.92;;
50092;SDS011;35974;47.752;10.290;2024-02-14T05:50:59;3.47;;;1.70;;
50092;SDS011;35974;47.752;10.290;2024-02-14T05:53:25;5.15;;;1.65;;
50092;SDS011;35974;47.752;10.290;2024-02-14T05:55:52;3.28;;;1.83;;
50092;SDS011;35974;47.752;10.290;2024-02-14T05:58:18;6.00;;;1.85;;
50092;SDS011;35974;47.752;10.290;2024-02-14T06:00:45;4.97;;;1.98;;
50092;SDS011;35974;47.752;10.290;2024-02-14T06:03:12;3.17;;;1.58;;
50092;SDS011;35974;47.752;10.290;2024-02-14T06:08:38;3.03;;;1.80;;
50092;SDS011;35974;47.752;10.290;2024-02-14T06:11:06;3.28;;;1.60;;
50092;SDS011;35974;47.752;10.290;2024-02-14T06:13:33;4.00;;;1.50;;
50092;SDS011;35974;47.752;10.290;2024-02-14T06:16:00;4.88;;;1.58;;
50092;SDS011;35974;47.752;10.290;2024-02-14T06:18:26;3.25;;;1.38;;
50092;SDS011;35974;47.752;10.290;2024-02-14T06:20:53;6.95;;;1.75;;
50092;SDS011;35974;47.752;10.290;2024-02-14T06:23:21;2.78;;;1.52;;
50092;SDS011;35974;47.752;10.290;2024-02-14T06:25:48;3.35;;;1.52;;
50092;SDS011;35974;47.752;10.290;2024-02-14T06:28:14;5.45;;;1.63;;
50092;SDS011;35974;47.752;10.290;2024-02-14T06:30:41;4.85;;;2.00;;
50092;SDS011;35974;47.752;10.290;2024-02-14T06:33:07;5.53;;;1.80;;
50092;SDS011;35974;47.752;10.290;2024-02-14T06:35:34;4.95;;;1.88;;
50092;SDS011;35974;47.752;10.290;2024-02-14T06:38:01;4.60;;;1.80;;
50092;SDS011;35974;47.752;10.290;2024-02-14T06:40:30;16.00;;;7.07;;
50092;SDS011;35974;47.752;10.290;2024-02-14T06:42:57;12.55;;;4.38;;
50092;SDS011;35974;47.752;10.290;2024-02-14T06:45:26;7.97;;;2.97;;
50092;SDS011;35974;47.752;10.290;2024-02-14T06:47:54;9.90;;;2.45;;
50092;SDS011;35974;47.752;10.290;2024-02-14T06:50:21;10.95;;;4.88;;
50092;SDS011;35974;47.752;10.290;2024-02-14T06:52:52;6.60;;;3.30;;
50092;SDS011;35974;47.752;10.290;2024-02-14T06:55:18;9.15;;;2.80;;
50092;SDS011;35974;47.752;10.290;2024-02-14T06:57:45;3.50;;;1.52;;
50092;SDS011;35974;47.752;10.290;2024-02-14T07:00:13;2.90;;;1.38;;
50092;SDS011;35974;47.752;10.290;2024-02-14T07:02:40;2.83;;;1.20;;
50092;SDS011;35974;47.752;10.290;2024-02-14T07:05:16;7.57;;;1.48;;
50092;SDS011;35974;47.752;10.290;2024-02-14T07:07:43;5.65;;;1.27;;
50092;SDS011;35974;47.752;10.290;2024-02-14T07:10:10;2.95;;;1.13;;
50092;SDS011;35974;47.752;10.290;2024-02-14T07:12:37;4.07;;;1.70;;
50092;SDS011;35974;47.752;10.290;2024-02-14T07:15:19;1.83;;;1.00;;
50092;SDS011;35974;47.752;10.290;2024-02-14T07:18:01;4.57;;;1.08;;
50092;SDS011;35974;47.752;10.290;2024-02-14T07:20:34;2.65;;;1.30;;
50092;SDS011;35974;47.752;10.290;2024-02-14T07:23:02;3.38;;;1.35;;
50092;SDS011;35974;47.752;10.290;2024-02-14T07:28:15;3.47;;;1.45;;
50092;SDS011;35974;47.752;10.290;2024-02-14T07:33:22;5.28;;;1.77;;
50092;SDS011;35974;47.752;10.290;2024-02-14T07:35:50;3.55;;;1.60;;
50092;SDS011;35974;47.752;10.290;2024-02-14T07:38:16;5.68;;;1.58;;
50092;SDS011;35974;47.752;10.290;2024-02-14T07:40:51;3.88;;;1.52;;
50092;SDS011;35974;47.752;10.290;2024-02-14T07:43:18;4.25;;;1.40;;
50092;SDS011;35974;47.752;10.290;2024-02-14T07:45:47;2.53;;;1.50;;
50092;SDS011;35974;47.752;10.290;2024-02-14T07:48:14;4.30;;;1.50;;
50092;SDS011;35974;47.752;10.290;2024-02-14T07:50:41;4.18;;;1.30;;
50092;SDS011;35974;47.752;10.290;2024-02-14T07:53:07;4.97;;;1.10;;
50092;SDS011;35974;47.752;10.290;2024-02-14T07:55:34;2.83;;;1.10;;
50092;SDS011;35974;47.752;10.290;2024-02-14T07:58:00;5.70;;;1.00;;
50092;SDS011;35974;47.752;10.290;2024-02-14T08:00:27;2.88;;;0.98;;
50092;SDS011;35974;47.752;10.290;2024-02-14T08:02:53;3.17;;;1.00;;
50092;SDS011;35974;47.752;10.290;2024-02-14T08:05:20;3.38;;;1.10;;
50092;SDS011;35974;47.752;10.290;2024-02-14T08:07:46;2.40;;;1.02;;
50092;SDS011;35974;47.752;10.290;2024-02-14T08:10:13;3.42;;;0.88;;
50092;SDS011;35974;47.752;10.290;2024-02-14T08:12:40;3.10;;;0.80;;
50092;SDS011;35974;47.752;10.290;2024-02-14T08:15:07;0.90;;;0.68;;
50092;SDS011;35974;47.752;10.290;2024-02-14T08:17:34;2.05;;;0.55;;
50092;SDS011;35974;47.752;10.290;2024-02-14T08:20:02;2.08;;;0.80;;
50092;SDS011;35974;47.752;10.290;2024-02-14T08:22:30;1.60;;;0.80;;
50092;SDS011;35974;47.752;10.290;2024-02-14T08:24:57;1.55;;;0.70;;
50092;SDS011;35974;47.752;10.290;2024-02-14T08:27:24;0.80;;;0.50;;
50092;SDS011;35974;47.752;10.290;2024-02-14T08:30:04;2.17;;;0.60;;
50092;SDS011;35974;47.752;10.290;2024-02-14T08:32:33;1.45;;;0.52;;
50092;SDS011;35974;47.752;10.290;2024-02-14T08:35:00;1.15;;;0.50;;
50092;SDS011;35974;47.752;10.290;2024-02-14T08:37:27;1.73;;;0.70;;
50092;SDS011;35974;47.752;10.290;2024-02-14T08:39:54;2.58;;;0.88;;
50092;SDS011;35974;47.752;10.290;2024-02-14T08:42:20;1.67;;;0.70;;
50092;SDS011;35974;47.752;10.290;2024-02-14T08:44:47;2.47;;;0.70;;
50092;SDS011;35974;47.752;10.290;2024-02-14T08:47:24;1.48;;;0.57;;
50092;SDS011;35974;47.752;10.290;2024-02-14T08:49:52;2.92;;;0.50;;
50092;SDS011;35974;47.752;10.290;2024-02-14T08:52:19;1.42;;;0.57;;
50092;SDS011;35974;47.752;10.290;2024-02-14T08:54:45;12.20;;;1.83;;
50092;SDS011;35974;47.752;10.290;2024-02-14T08:57:13;4.28;;;1.00;;
50092;SDS011;35974;47.752;10.290;2024-02-14T08:59:40;2.67;;;0.63;;
50092;SDS011;35974;47.752;10.290;2024-02-14T09:02:15;7.07;;;1.02;;
50092;SDS011;35974;47.752;10.290;2024-02-14T09:04:50;1.60;;;0.65;;
50092;SDS011;35974;47.752;10.290;2024-02-14T09:07:20;1.98;;;0.40;;
50092;SDS011;35974;47.752;10.290;2024-02-14T09:09:46;2.75;;;0.50;;
50092;SDS011;35974;47.752;10.290;2024-02-14T09:12:13;2.95;;;0.50;;
50092;SDS011;35974;47.752;10.290;2024-02-14T09:14:43;0.85;;;0.50;;
50092;SDS011;35974;47.752;10.290;2024-02-14T09:17:09;1.05;;;0.60;;
50092;SDS011;35974;47.752;10.290;2024-02-14T09:19:37;1.42;;;0.70;;
50092;SDS011;35974;47.752;10.290;2024-02-14T09:22:06;1.48;;;0.40;;
50092;SDS011;35974;47.752;10.290;2024-02-14T09:24:33;1.08;;;0.40;;
50092;SDS011;35974;47.752;10.290;2024-02-14T09:29:48;6.80;;;1.20;;
50092;SDS011;35974;47.752;10.290;2024-02-14T09:32:17;5.40;;;0.65;;
50092;SDS011;35974;47.752;10.290;2024-02-14T09:34:43;1.83;;;0.70;;
50092;SDS011;35974;47.752;10.290;2024-02-14T09:37:12;0.82;;;0.40;;
50092;SDS011;35974;47.752;10.290;2024-02-14T09:39:39;1.77;;;0.60;;
50092;SDS011;35974;47.752;10.290;2024-02-14T09:42:13;2.22;;;0.55;;
50092;SDS011;35974;47.752;10.290;2024-02-14T09:44:42;1.60;;;0.55;;
50092;SDS011;35974;47.752;10.290;2024-02-14T09:47:12;1.17;;;0.50;;
50092;SDS011;35974;47.752;10.290;2024-02-14T09:49:40;1.02;;;0.50;;
50092;SDS011;35974;47.752;10.290;2024-02-14T09:52:08;1.58;;;0.80;;
50092;SDS011;35974;47.752;10.290;2024-02-14T09:54:37;5.22;;;0.80;;
50092;SDS011;35974;47.752;10.290;2024-02-14T09:57:05;5.70;;;0.70;;
50092;SDS011;35974;47.752;10.290;2024-02-14T09:59:32;2.60;;;0.60;;
50092;SDS011;35974;47.752;10.290;2024-02-14T10:02:00;1.08;;;0.43;;
50092;SDS011;35974;47.752;10.290;2024-02-14T10:04:27;2.20;;;0.60;;
50092;SDS011;35974;47.752;10.290;2024-02-14T10:06:54;1.30;;;0.47;;
50092;SDS011;35974;47.752;10.290;2024-02-14T10:09:22;1.55;;;0.50;;
50092;SDS011;35974;47.752;10.290;2024-02-14T10:11:51;3.85;;;0.60;;
50092;SDS011;35974;47.752;10.290;2024-02-14T10:14:17;9.88;;;1.10;;
50092;SDS011;35974;47.752;10.290;2024-02-14T10:16:44;0.68;;;0.50;;
50092;SDS011;35974;47.752;10.290;2024-02-14T10:19:15;1.10;;;0.40;;
50092;SDS011;35974;47.752;10.290;2024-02-14T10:22:03;1.77;;;0.40;;
50092;SDS011;35974;47.752;10.290;2024-02-14T10:24:32;1.08;;;0.63;;
50092;SDS011;35974;47.752;10.290;2024-02-14T10:26:59;1.10;;;0.60;;
50092;SDS011;35974;47.752;10.290;2024-02-14T10:29:26;1.75;;;0.55;;
50092;SDS011;35974;47.752;10.290;2024-02-14T10:31:52;1.05;;;0.57;;
50092;SDS011;35974;47.752;10.290;2024-02-14T10:34:24;0.90;;;0.50;;
50092;SDS011;35974;47.752;10.290;2024-02-14T10:37:03;2.13;;;0.60;;
50092;SDS011;35974;47.752;10.290;2024-02-14T10:39:46;1.30;;;0.60;;
50092;SDS011;35974;47.752;10.290;2024-02-14T10:42:18;1.50;;;0.40;;
50092;SDS011;35974;47.752;10.290;2024-02-14T10:44:45;1.25;;;0.50;;
50092;SDS011;35974;47.752;10.290;2024-02-14T10:50:03;1.55;;;0.50;;
50092;SDS011;35974;47.752;10.290;2024-02-14T10:52:40;1.10;;;0.40;;
50092;SDS011;35974;47.752;10.290;2024-02-14T10:55:07;3.00;;;0.47;;
50092;SDS011;35974;47.752;10.290;2024-02-14T10:57:36;1.20;;;0.52;;
50092;SDS011;35974;47.752;10.290;2024-02-14T11:00:06;0.88;;;0.43;;
50092;SDS011;35974;47.752;10.290;2024-02-14T11:02:39;1.17;;;0.60;;
50092;SDS011;35974;47.752;10.290;2024-02-14T11:05:13;1.45;;;0.50;;
50092;SDS011;35974;47.752;10.290;2024-02-14T11:07:46;0.80;;;0.60;;
50092;SDS011;35974;47.752;10.290;2024-02-14T11:10:16;1.55;;;0.40;;
50092;SDS011;35974;47.752;10.290;2024-02-14T11:12:45;1.70;;;0.70;;
50092;SDS011;35974;47.752;10.290;2024-02-14T11:15:17;1.17;;;0.70;;
50092;SDS011;35974;47.752;10.290;2024-02-14T11:17:46;1.05;;;0.45;;
50092;SDS011;35974;47.752;10.290;2024-02-14T11:20:16;1.55;;;0.90;;
50092;SDS011;35974;47.752;10.290;2024-02-14T11:22:55;0.60;;;0.40;;
50092;SDS011;35974;47.752;10.290;2024-02-14T11:25:28;0.98;;;0.50;;
50092;SDS011;35974;47.752;10.290;2024-02-14T11:30:46;1.05;;;0.60;;
50092;SDS011;35974;47.752;10.290;2024-02-14T11:33:13;0.70;;;0.43;;
50092;SDS011;35974;47.752;10.290;2024-02-14T11:35:48;1.02;;;0.50;;
50092;SDS011;35974;47.752;10.290;2024-02-14T11:38:20;0.50;;;0.30;;
50092;SDS011;35974;47.752;10.290;2024-02-14T11:40:55;2.75;;;0.50;;
50092;SDS011;35974;47.752;10.290;2024-02-14T11:46:06;0.65;;;0.47;;
50092;SDS011;35974;47.752;10.290;2024-02-14T11:48:33;1.00;;;0.40;;
50092;SDS011;35974;47.752;10.290;2024-02-14T11:51:00;0.65;;;0.35;;
50092;SDS011;35974;47.752;10.290;2024-02-14T11:53:26;2.15;;;0.40;;
50092;SDS011;35974;47.752;10.290;2024-02-14T11:55:55;0.40;;;0.30;;
50092;SDS011;35974;47.752;10.290;2024-02-14T11:58:22;0.38;;;0.30;;
50092;SDS011;35974;47.752;10.290;2024-02-14T12:00:52;0.60;;;0.40;;
50092;SDS011;35974;47.752;10.290;2024-02-14T12:03:22;1.33;;;0.40;;
50092;SDS011;35974;47.752;10.290;2024-02-14T12:05:50;2.28;;;0.40;;
50092;SDS011;35974;47.752;10.290;2024-02-14T12:08:18;0.75;;;0.57;;
50092;SDS011;35974;47.752;10.290;2024-02-14T12:10:50;2.03;;;0.50;;
50092;SDS011;35974;47.752;10.290;2024-02-14T12:13:25;2.30;;;0.60;;
50092;SDS011;35974;47.752;10.290;2024-02-14T12:16:00;0.50;;;0.32;;
50092;SDS011;35974;47.752;10.290;2024-02-14T12:21:04;0.57;;;0.50;;
50092;SDS011;35974;47.752;10.290;2024-02-14T12:23:34;1.17;;;0.50;;
50092;SDS011;35974;47.752;10.290;2024-02-14T12:29:00;1.55;;;0.68;;
50092;SDS011;35974;47.752;10.290;2024-02-14T12:31:28;2.38;;;0.70;;
50092;SDS011;35974;47.752;10.290;2024-02-14T12:33:58;1.20;;;0.40;;
50092;SDS011;35974;47.752;10.290;2024-02-14T12:36:38;0.70;;;0.50;;
50092;SDS011;35974;47.752;10.290;2024-02-14T12:39:08;1.30;;;0.40;;
50092;SDS011;35974;47.752;10.290;2024-02-14T12:41:40;0.90;;;0.50;;
50092;SDS011;35974;47.752;10.290;2024-02-14T12:44:07;0.52;;;0.40;;
50092;SDS011;35974;47.752;10.290;2024-02-14T12:46:41;1.00;;;0.40;;
50092;SDS011;35974;47.752;10.290;2024-02-14T12:49:08;2.20;;;0.40;;
50092;SDS011;35974;47.752;10.290;2024-02-14T12:51:44;0.77;;;0.40;;
50092;SDS011;35974;47.752;10.290;2024-02-14T12:57:04;0.73;;;0.30;;
50092;SDS011;35974;47.752;10.290;2024-02-14T12:59:31;1.48;;;0.50;;
50092;SDS011;35974;47.752;10.290;2024-02-14T13:04:40;0.82;;;0.32;;
50092;SDS011;35974;47.752;10.290;2024-02-14T13:09:36;2.17;;;0.47;;
50092;SDS011;35974;47.752;10.290;2024-02-14T13:12:03;1.27;;;0.40;;
50092;SDS011;35974;47.752;10.290;2024-02-14T13:14:32;0.50;;;0.35;;
50092;SDS011;35974;47.752;10.290;2024-02-14T13:16:59;0.70;;;0.40;;
50092;SDS011;35974;47.752;10.290;2024-02-14T13:19:26;0.40;;;0.20;;
50092;SDS011;35974;47.752;10.290;2024-02-14T13:21:52;1.10;;;0.30;;
50092;SDS011;35974;47.752;10.290;2024-02-14T13:27:10;2.45;;;0.40;;
50092;SDS011;35974;47.752;10.290;2024-02-14T13:29:37;0.45;;;0.40;;
50092;SDS011;35974;47.752;10.290;2024-02-14T13:32:04;0.70;;;0.40;;
50092;SDS011;35974;47.752;10.290;2024-02-14T13:34:33;1.27;;;0.77;;
50092;SDS011;35974;47.752;10.290;2024-02-14T13:37:01;1.00;;;0.50;;
50092;SDS011;35974;47.752;10.290;2024-02-14T13:39:28;0.80;;;0.40;;
50092;SDS011;35974;47.752;10.290;2024-02-14T13:41:55;1.13;;;0.30;;
50092;SDS011;35974;47.752;10.290;2024-02-14T13:44:25;1.08;;;0.40;;
50092;SDS011;35974;47.752;10.290;2024-02-14T13:46:52;0.65;;;0.38;;
50092;SDS011;35974;47.752;10.290;2024-02-14T13:49:22;1.33;;;0.50;;
50092;SDS011;35974;47.752;10.290;2024-02-14T13:51:50;0.43;;;0.25;;
50092;SDS011;35974;47.752;10.290;2024-02-14T13:54:20;0.60;;;0.40;;
50092;SDS011;35974;47.752;10.290;2024-02-14T13:56:52;0.45;;;0.30;;
50092;SDS011;35974;47.752;10.290;2024-02-14T13:59:19;1.05;;;0.40;;
50092;SDS011;35974;47.752;10.290;2024-02-14T14:01:46;0.88;;;0.40;;
50092;SDS011;35974;47.752;10.290;2024-02-14T14:04:13;0.60;;;0.32;;
50092;SDS011;35974;47.752;10.290;2024-02-14T14:06:43;0.95;;;0.40;;
50092;SDS011;35974;47.752;10.290;2024-02-14T14:09:10;1.30;;;0.50;;
50092;SDS011;35974;47.752;10.290;2024-02-14T14:11:38;1.98;;;0.52;;
50092;SDS011;35974;47.752;10.290;2024-02-14T14:14:06;3.55;;;0.57;;
50092;SDS011;35974;47.752;10.290;2024-02-14T14:16:34;0.65;;;0.32;;
50092;SDS011;35974;47.752;10.290;2024-02-14T14:21:34;1.08;;;0.73;;
50092;SDS011;35974;47.752;10.290;2024-02-14T14:24:05;1.02;;;0.38;;
50092;SDS011;35974;47.752;10.290;2024-02-14T14:26:43;0.85;;;0.50;;
50092;SDS011;35974;47.752;10.290;2024-02-14T14:29:09;1.35;;;0.40;;
50092;SDS011;35974;47.752;10.290;2024-02-14T14:31:37;1.08;;;0.47;;
50092;SDS011;35974;47.752;10.290;2024-02-14T14:34:05;0.90;;;0.40;;
50092;SDS011;35974;47.752;10.290;2024-02-14T14:36:40;1.60;;;0.57;;
50092;SDS011;35974;47.752;10.290;2024-02-14T14:41:39;1.70;;;0.95;;
50092;SDS011;35974;47.752;10.290;2024-02-14T14:44:06;1.77;;;0.60;;
50092;SDS011;35974;47.752;10.290;2024-02-14T14:46:34;1.40;;;0.85;;
50092;SDS011;35974;47.752;10.290;2024-02-14T14:49:09;1.60;;;0.63;;
50092;SDS011;35974;47.752;10.290;2024-02-14T14:51:40;1.50;;;0.77;;
50092;SDS011;35974;47.752;10.290;2024-02-14T14:54:18;2.67;;;0.98;;
50092;SDS011;35974;47.752;10.290;2024-02-14T14:56:53;0.82;;;0.40;;
50092;SDS011;35974;47.752;10.290;2024-02-14T14:59:22;1.70;;;0.40;;
50092;SDS011;35974;47.752;10.290;2024-02-14T15:01:49;2.25;;;0.73;;
50092;SDS011;35974;47.752;10.290;2024-02-14T15:04:22;1.10;;;0.68;;
50092;SDS011;35974;47.752;10.290;2024-02-14T15:06:50;1.30;;;0.60;;
50092;SDS011;35974;47.752;10.290;2024-02-14T15:09:20;1.73;;;0.60;;
50092;SDS011;35974;47.752;10.290;2024-02-14T15:14:20;1.00;;;0.60;;
50092;SDS011;35974;47.752;10.290;2024-02-14T15:16:47;1.40;;;0.80;;
50092;SDS011;35974;47.752;10.290;2024-02-14T15:19:14;0.95;;;0.65;;
50092;SDS011;35974;47.752;10.290;2024-02-14T15:21:46;0.98;;;0.50;;
50092;SDS011;35974;47.752;10.290;2024-02-14T15:24:13;2.15;;;0.60;;
50092;SDS011;35974;47.752;10.290;2024-02-14T15:26:42;1.10;;;0.70;;
50092;SDS011;35974;47.752;10.290;2024-02-14T15:29:30;0.70;;;0.60;;
50092;SDS011;35974;47.752;10.290;2024-02-14T15:32:23;1.15;;;0.50;;
50092;SDS011;35974;47.752;10.290;2024-02-14T15:35:16;0.77;;;0.40;;
50092;SDS011;35974;47.752;10.290;2024-02-14T15:37:53;2.85;;;0.70;;
50092;SDS011;35974;47.752;10.290;2024-02-14T15:40:21;1.20;;;0.47;;
50092;SDS011;35974;47.752;10.290;2024-02-14T15:45:40;0.95;;;0.40;;
50092;SDS011;35974;47.752;10.290;2024-02-14T15:48:11;0.40;;;0.35;;
50092;SDS011;35974;47.752;10.290;2024-02-14T15:50:44;1.20;;;0.52;;